sensor_id;sensor_type;location;lat;lon;timestamp;P1;P2;P0
14880;PMS7003;7533;51.278;12.588;2023-04-06T00:04:05;64.40;48.80;26.80
14880;PMS7003;7533;51.278;12.588;2023-04-06T00:09:08;66.80;49.60;27.00
14880;PMS7003;7533;51.278;12.588;2023-04-06T00:14:11;67.60;49.80;27.80
14880;PMS7003;7533;51.278;12.588;2023-04-06T00:19:16;65.40;47.80;26.60
14880;PMS7003;7533;51.278;12.588;2023-04-06T00:24:19;66.20;48.60;26.00
14880;PMS7003;7533;51.278;12.588;2023-04-06T00:29:22;67.00;49.00;26.60
14880;PMS7003;7533;51.278;12.588;2023-04-06T00:34:26;64.40;48.60;26.40
14880;PMS7003;7533;51.278;12.588;2023-04-06T00:39:29;62.00;48.00;26.20
14880;PMS7003;7533;51.278;12.588;2023-04-06T00:44:32;62.80;46.60;25.80
14880;PMS7003;7533;51.278;12.588;2023-04-06T00:49:36;67.00;47.40;26.00
14880;PMS7003;7533;51.278;12.588;2023-04-06T00:54:39;60.80;46.40;26.00
14880;PMS7003;7533;51.278;12.588;2023-04-06T00:59:43;59.00;45.80;25.20
14880;PMS7003;7533;51.278;12.588;2023-04-06T01:04:49;59.40;44.40;25.60
14880;PMS7003;7533;51.278;12.588;2023-04-06T01:09:59;56.60;43.00;25.00
14880;PMS7003;7533;51.278;12.588;2023-04-06T01:15:04;58.40;44.00;25.20
14880;PMS7003;7533;51.278;12.588;2023-04-06T01:20:10;58.20;43.60;24.80
14880;PMS7003;7533;51.278;12.588;2023-04-06T01:25:15;58.20;44.20;24.80
14880;PMS7003;7533;51.278;12.588;2023-04-06T01:30:35;58.60;44.20;23.00
14880;PMS7003;7533;51.278;12.588;2023-04-06T01:35:45;58.40;42.20;25.00
14880;PMS7003;7533;51.278;12.588;2023-04-06T01:40:53;60.40;44.80;24.40
14880;PMS7003;7533;51.278;12.588;2023-04-06T01:45:59;56.80;41.80;23.00
14880;PMS7003;7533;51.278;12.588;2023-04-06T01:51:07;55.20;42.40;23.00
14880;PMS7003;7533;51.278;12.588;2023-04-06T01:56:20;57.20;42.00;23.80
14880;PMS7003;7533;51.278;12.588;2023-04-06T02:01:35;50.80;41.00;23.20
14880;PMS7003;7533;51.278;12.588;2023-04-06T02:06:38;55.00;42.00;22.00
14880;PMS7003;7533;51.278;12.588;2023-04-06T02:11:45;54.60;42.00;23.00
14880;PMS7003;7533;51.278;12.588;2023-04-06T02:16:47;53.00;41.40;23.00
14880;PMS7003;7533;51.278;12.588;2023-04-06T02:21:51;52.80;41.40;22.00
14880;PMS7003;7533;51.278;12.588;2023-04-06T02:26:55;53.60;39.00;22.60
14880;PMS7003;7533;51.278;12.588;2023-04-06T02:31:58;53.60;40.80;22.80
14880;PMS7003;7533;51.278;12.588;2023-04-06T02:37:03;51.40;40.00;22.60
14880;PMS7003;7533;51.278;12.588;2023-04-06T02:42:07;56.20;42.00;22.60
14880;PMS7003;7533;51.278;12.588;2023-04-06T02:47:11;52.60;40.60;22.00
14880;PMS7003;7533;51.278;12.588;2023-04-06T02:52:18;51.80;40.60;21.60
14880;PMS7003;7533;51.278;12.588;2023-04-06T02:57:22;54.40;40.60;22.00
14880;PMS7003;7533;51.278;12.588;2023-04-06T03:02:26;51.60;40.40;22.00
14880;PMS7003;7533;51.278;12.588;2023-04-06T03:07:37;54.80;39.80;22.60
14880;PMS7003;7533;51.278;12.588;2023-04-06T03:12:47;50.40;39.20;21.80
14880;PMS7003;7533;51.278;12.588;2023-04-06T03:17:59;50.60;39.20;21.00
14880;PMS7003;7533;51.278;12.588;2023-04-06T03:23:18;51.80;36.00;20.20
14880;PMS7003;7533;51.278;12.588;2023-04-06T03:28:27;53.60;39.40;22.00
14880;PMS7003;7533;51.278;12.588;2023-04-06T03:33:33;49.40;38.80;21.20
14880;PMS7003;7533;51.278;12.588;2023-04-06T03:38:36;48.20;37.20;20.20
14880;PMS7003;7533;51.278;12.588;2023-04-06T03:43:47;47.60;35.80;20.60
14880;PMS7003;7533;51.278;12.588;2023-04-06T03:48:51;48.80;38.20;21.00
14880;PMS7003;7533;51.278;12.588;2023-04-06T03:53:57;53.80;41.60;20.40
14880;PMS7003;7533;51.278;12.588;2023-04-06T03:59:01;48.00;38.20;19.20
14880;PMS7003;7533;51.278;12.588;2023-04-06T04:04:04;45.20;37.80;19.60
14880;PMS7003;7533;51.278;12.588;2023-04-06T04:09:07;48.00;36.20;20.00
14880;PMS7003;7533;51.278;12.588;2023-04-06T04:14:12;43.20;33.80;19.20
14880;PMS7003;7533;51.278;12.588;2023-04-06T04:19:15;50.40;39.40;20.80
14880;PMS7003;7533;51.278;12.588;2023-04-06T04:24:18;43.80;34.20;19.40
14880;PMS7003;7533;51.278;12.588;2023-04-06T04:29:23;49.40;34.00;20.40
14880;PMS7003;7533;51.278;12.588;2023-04-06T04:34:27;48.00;36.00;19.00
14880;PMS7003;7533;51.278;12.588;2023-04-06T04:39:31;49.00;37.80;20.60
14880;PMS7003;7533;51.278;12.588;2023-04-06T04:44:39;42.80;34.60;19.60
14880;PMS7003;7533;51.278;12.588;2023-04-06T04:49:43;42.40;32.20;18.40
14880;PMS7003;7533;51.278;12.588;2023-04-06T04:54:51;36.00;30.80;17.40
14880;PMS7003;7533;51.278;12.588;2023-04-06T05:00:01;43.20;33.60;17.00
14880;PMS7003;7533;51.278;12.588;2023-04-06T05:05:06;40.60;32.80;16.20
14880;PMS7003;7533;51.278;12.588;2023-04-06T05:10:10;40.60;32.00;17.60
14880;PMS7003;7533;51.278;12.588;2023-04-06T05:15:25;41.60;31.40;15.80
14880;PMS7003;7533;51.278;12.588;2023-04-06T05:20:33;36.20;30.60;16.00
14880;PMS7003;7533;51.278;12.588;2023-04-06T05:25:37;33.40;28.00;14.20
14880;PMS7003;7533;51.278;12.588;2023-04-06T05:30:50;36.00;30.60;15.00
14880;PMS7003;7533;51.278;12.588;2023-04-06T05:35:53;30.80;28.40;13.00
14880;PMS7003;7533;51.278;12.588;2023-04-06T05:40:57;42.80;31.00;17.60
14880;PMS7003;7533;51.278;12.588;2023-04-06T05:46:06;29.80;25.00;13.00
14880;PMS7003;7533;51.278;12.588;2023-04-06T05:51:09;29.60;24.40;11.60
14880;PMS7003;7533;51.278;12.588;2023-04-06T05:56:18;31.60;24.20;12.80
14880;PMS7003;7533;51.278;12.588;2023-04-06T06:01:23;32.20;28.40;13.40
14880;PMS7003;7533;51.278;12.588;2023-04-06T06:06:28;33.20;29.00;15.40
14880;PMS7003;7533;51.278;12.588;2023-04-06T06:11:49;33.40;24.00;13.80
14880;PMS7003;7533;51.278;12.588;2023-04-06T06:16:59;31.20;25.20;12.80
14880;PMS7003;7533;51.278;12.588;2023-04-06T06:22:03;29.80;22.60;12.60
14880;PMS7003;7533;51.278;12.588;2023-04-06T06:27:10;33.00;25.00;11.60
14880;PMS7003;7533;51.278;12.588;2023-04-06T06:32:15;31.00;24.60;12.00
14880;PMS7003;7533;51.278;12.588;2023-04-06T06:37:22;27.00;22.40;11.60
14880;PMS7003;7533;51.278;12.588;2023-04-06T06:42:25;33.20;27.00;13.00
14880;PMS7003;7533;51.278;12.588;2023-04-06T06:47:48;26.75;22.00;13.00
14880;PMS7003;7533;51.278;12.588;2023-04-06T06:52:55;29.00;21.00;10.40
14880;PMS7003;7533;51.278;12.588;2023-04-06T06:57:58;24.00;22.25;10.75
14880;PMS7003;7533;51.278;12.588;2023-04-06T07:03:03;21.80;19.20;12.00
14880;PMS7003;7533;51.278;12.588;2023-04-06T07:08:07;19.00;17.80;12.80
14880;PMS7003;7533;51.278;12.588;2023-04-06T07:13:10;17.75;17.25;12.25
14880;PMS7003;7533;51.278;12.588;2023-04-06T07:18:15;17.25;15.50;10.25
14880;PMS7003;7533;51.278;12.588;2023-04-06T07:23:19;15.00;12.50;9.00
14880;PMS7003;7533;51.278;12.588;2023-04-06T07:28:22;11.50;11.25;7.50
14880;PMS7003;7533;51.278;12.588;2023-04-06T07:33:26;10.25;10.00;7.00
14880;PMS7003;7533;51.278;12.588;2023-04-06T07:38:32;12.25;12.00;8.00
14880;PMS7003;7533;51.278;12.588;2023-04-06T07:43:35;9.25;8.25;5.00
14880;PMS7003;7533;51.278;12.588;2023-04-06T07:48:40;8.75;8.50;6.00
14880;PMS7003;7533;51.278;12.588;2023-04-06T07:53:43;8.00;7.50;5.00
14880;PMS7003;7533;51.278;12.588;2023-04-06T07:58:46;8.50;8.00;4.00
14880;PMS7003;7533;51.278;12.588;2023-04-06T08:03:51;8.50;6.75;4.50
14880;PMS7003;7533;51.278;12.588;2023-04-06T08:08:57;7.75;6.25;5.00
14880;PMS7003;7533;51.278;12.588;2023-04-06T08:13:59;7.75;7.50;5.00
14880;PMS7003;7533;51.278;12.588;2023-04-06T08:23:21;7.25;7.25;4.50
14880;PMS7003;7533;51.278;12.588;2023-04-06T08:28:24;8.50;6.75;5.25
14880;PMS7003;7533;51.278;12.588;2023-04-06T08:33:27;9.25;8.00;4.00
14880;PMS7003;7533;51.278;12.588;2023-04-06T08:38:32;5.00;5.00;4.00
14880;PMS7003;7533;51.278;12.588;2023-04-06T08:43:36;7.75;6.75;4.00
14880;PMS7003;7533;51.278;12.588;2023-04-06T08:48:45;6.75;6.25;4.25
14880;PMS7003;7533;51.278;12.588;2023-04-06T08:53:52;7.00;7.00;4.00
14880;PMS7003;7533;51.278;12.588;2023-04-06T08:58:57;7.75;7.75;5.00
14880;PMS7003;7533;51.278;12.588;2023-04-06T09:04:00;7.00;7.00;5.00
14880;PMS7003;7533;51.278;12.588;2023-04-06T09:09:10;6.00;6.00;4.75
14880;PMS7003;7533;51.278;12.588;2023-04-06T09:14:14;6.00;6.00;4.00
14880;PMS7003;7533;51.278;12.588;2023-04-06T09:19:18;6.25;6.25;4.00
14880;PMS7003;7533;51.278;12.588;2023-04-06T09:24:22;6.50;6.50;3.75
14880;PMS7003;7533;51.278;12.588;2023-04-06T09:29:27;5.50;5.50;3.25
14880;PMS7003;7533;51.278;12.588;2023-04-06T09:34:30;6.25;6.25;3.00
14880;PMS7003;7533;51.278;12.588;2023-04-06T09:39:34;6.50;5.00;4.00
14880;PMS7003;7533;51.278;12.588;2023-04-06T09:44:37;7.50;5.75;3.75
14880;PMS7003;7533;51.278;12.588;2023-04-06T09:49:40;7.75;7.00;4.75
14880;PMS7003;7533;51.278;12.588;2023-04-06T09:54:45;5.00;5.00;3.75
14880;PMS7003;7533;51.278;12.588;2023-04-06T09:59:54;8.50;7.25;4.75
14880;PMS7003;7533;51.278;12.588;2023-04-06T10:05:05;6.75;6.00;4.00
14880;PMS7003;7533;51.278;12.588;2023-04-06T10:10:13;9.25;7.50;4.50
14880;PMS7003;7533;51.278;12.588;2023-04-06T10:15:17;7.50;6.00;4.25
14880;PMS7003;7533;51.278;12.588;2023-04-06T10:20:23;6.75;4.75;3.75
14880;PMS7003;7533;51.278;12.588;2023-04-06T10:25:34;9.25;7.75;5.00
14880;PMS7003;7533;51.278;12.588;2023-04-06T10:30:41;7.00;7.00;4.00
14880;PMS7003;7533;51.278;12.588;2023-04-06T10:35:45;9.75;7.50;5.00
14880;PMS7003;7533;51.278;12.588;2023-04-06T10:40:50;24.00;21.50;13.25
14880;PMS7003;7533;51.278;12.588;2023-04-06T10:45:54;41.20;33.60;23.40
14880;PMS7003;7533;51.278;12.588;2023-04-06T10:50:58;48.20;39.00;24.80
14880;PMS7003;7533;51.278;12.588;2023-04-06T10:56:03;44.60;36.80;24.00
14880;PMS7003;7533;51.278;12.588;2023-04-06T11:01:11;41.40;34.80;22.80
14880;PMS7003;7533;51.278;12.588;2023-04-06T11:06:18;26.40;25.40;17.60
14880;PMS7003;7533;51.278;12.588;2023-04-06T11:11:24;19.50;17.50;12.00
14880;PMS7003;7533;51.278;12.588;2023-04-06T11:16:29;23.75;17.25;12.00
14880;PMS7003;7533;51.278;12.588;2023-04-06T11:21:34;18.00;18.00;12.75
14880;PMS7003;7533;51.278;12.588;2023-04-06T11:26:40;18.25;16.25;11.00
14880;PMS7003;7533;51.278;12.588;2023-04-06T11:31:45;14.00;14.00;10.00
14880;PMS7003;7533;51.278;12.588;2023-04-06T11:36:53;15.50;12.50;8.00
14880;PMS7003;7533;51.278;12.588;2023-04-06T11:41:59;13.75;11.75;6.75
14880;PMS7003;7533;51.278;12.588;2023-04-06T11:47:09;12.00;11.00;9.00
14880;PMS7003;7533;51.278;12.588;2023-04-06T11:52:16;11.75;11.75;7.75
14880;PMS7003;7533;51.278;12.588;2023-04-06T11:57:22;12.75;11.25;7.75
14880;PMS7003;7533;51.278;12.588;2023-04-06T12:02:27;11.00;11.00;8.00
14880;PMS7003;7533;51.278;12.588;2023-04-06T12:07:30;10.50;10.50;6.00
14880;PMS7003;7533;51.278;12.588;2023-04-06T12:12:34;9.25;8.75;6.25
14880;PMS7003;7533;51.278;12.588;2023-04-06T12:17:37;9.00;9.00;7.25
14880;PMS7003;7533;51.278;12.588;2023-04-06T12:22:40;9.75;9.75;6.75
14880;PMS7003;7533;51.278;12.588;2023-04-06T12:27:45;10.00;9.25;6.75
14880;PMS7003;7533;51.278;12.588;2023-04-06T12:32:48;10.25;10.25;6.00
14880;PMS7003;7533;51.278;12.588;2023-04-06T12:37:52;9.00;7.75;5.00
14880;PMS7003;7533;51.278;12.588;2023-04-06T12:42:57;10.25;9.00;5.75
14880;PMS7003;7533;51.278;12.588;2023-04-06T12:48:00;7.00;7.00;5.75
14880;PMS7003;7533;51.278;12.588;2023-04-06T12:53:03;9.00;8.33;5.00
14880;PMS7003;7533;51.278;12.588;2023-04-06T12:58:08;9.25;8.25;6.50
14880;PMS7003;7533;51.278;12.588;2023-04-06T13:03:10;9.75;7.00;5.25
14880;PMS7003;7533;51.278;12.588;2023-04-06T13:08:14;7.50;7.50;6.25
14880;PMS7003;7533;51.278;12.588;2023-04-06T13:13:22;11.00;8.25;6.50
14880;PMS7003;7533;51.278;12.588;2023-04-06T13:18:26;7.50;7.50;4.25
14880;PMS7003;7533;51.278;12.588;2023-04-06T13:23:29;7.25;7.25;5.00
14880;PMS7003;7533;51.278;12.588;2023-04-06T13:28:33;9.00;6.50;5.00
14880;PMS7003;7533;51.278;12.588;2023-04-06T13:33:39;9.50;8.00;5.75
14880;PMS7003;7533;51.278;12.588;2023-04-06T13:38:43;7.00;7.00;5.00
14880;PMS7003;7533;51.278;12.588;2023-04-06T13:43:48;6.75;6.75;5.25
14880;PMS7003;7533;51.278;12.588;2023-04-06T13:48:51;7.25;6.00;4.75
14880;PMS7003;7533;51.278;12.588;2023-04-06T13:53:54;8.50;5.25;4.00
14880;PMS7003;7533;51.278;12.588;2023-04-06T13:58:58;11.75;10.25;7.25
14880;PMS7003;7533;51.278;12.588;2023-04-06T14:04:01;12.25;10.50;8.00
14880;PMS7003;7533;51.278;12.588;2023-04-06T14:09:04;8.00;7.50;6.00
14880;PMS7003;7533;51.278;12.588;2023-04-06T14:14:08;7.00;7.00;4.75
14880;PMS7003;7533;51.278;12.588;2023-04-06T14:19:11;7.25;7.25;5.50
14880;PMS7003;7533;51.278;12.588;2023-04-06T14:24:15;6.75;5.50;4.00
14880;PMS7003;7533;51.278;12.588;2023-04-06T14:29:20;6.33;5.33;4.00
14880;PMS7003;7533;51.278;12.588;2023-04-06T14:34:23;7.75;7.75;6.00
14880;PMS7003;7533;51.278;12.588;2023-04-06T14:39:26;6.00;6.00;4.25
14880;PMS7003;7533;51.278;12.588;2023-04-06T14:44:32;5.50;5.50;4.00
14880;PMS7003;7533;51.278;12.588;2023-04-06T14:49:35;9.00;6.75;4.50
14880;PMS7003;7533;51.278;12.588;2023-04-06T14:54:38;4.75;4.75;3.00
14880;PMS7003;7533;51.278;12.588;2023-04-06T14:59:42;6.75;6.00;4.50
14880;PMS7003;7533;51.278;12.588;2023-04-06T15:04:45;5.50;5.50;4.00
14880;PMS7003;7533;51.278;12.588;2023-04-06T15:09:48;6.00;6.00;4.00
14880;PMS7003;7533;51.278;12.588;2023-04-06T15:14:52;4.50;4.50;4.00
14880;PMS7003;7533;51.278;12.588;2023-04-06T15:19:56;32.40;27.40;16.60
14880;PMS7003;7533;51.278;12.588;2023-04-06T15:24:58;135.20;107.00;53.40
14880;PMS7003;7533;51.278;12.588;2023-04-06T15:30:03;105.20;82.20;42.80
14880;PMS7003;7533;51.278;12.588;2023-04-06T15:35:10;116.40;95.20;48.00
14880;PMS7003;7533;51.278;12.588;2023-04-06T15:40:14;172.60;133.80;65.40
14880;PMS7003;7533;51.278;12.588;2023-04-06T15:45:18;195.20;155.00;73.20
14880;PMS7003;7533;51.278;12.588;2023-04-06T15:50:21;193.60;160.00;79.20
14880;PMS7003;7533;51.278;12.588;2023-04-06T15:55:25;189.00;163.80;77.00
14880;PMS7003;7533;51.278;12.588;2023-04-06T16:00:29;204.80;167.40;79.80
14880;PMS7003;7533;51.278;12.588;2023-04-06T16:05:32;213.00;172.00;81.60
14880;PMS7003;7533;51.278;12.588;2023-04-06T16:10:54;204.80;169.40;77.00
14880;PMS7003;7533;51.278;12.588;2023-04-06T16:15:58;191.20;159.40;74.00
14880;PMS7003;7533;51.278;12.588;2023-04-06T16:21:01;197.80;160.60;73.00
14880;PMS7003;7533;51.278;12.588;2023-04-06T16:26:09;196.60;160.60;74.60
14880;PMS7003;7533;51.278;12.588;2023-04-06T16:31:17;183.00;155.20;71.00
14880;PMS7003;7533;51.278;12.588;2023-04-06T16:36:22;180.00;145.40;68.60
14880;PMS7003;7533;51.278;12.588;2023-04-06T16:41:26;169.60;138.80;62.20
14880;PMS7003;7533;51.278;12.588;2023-04-06T16:46:30;146.20;122.40;59.00
14880;PMS7003;7533;51.278;12.588;2023-04-06T16:51:34;137.40;116.80;56.60
14880;PMS7003;7533;51.278;12.588;2023-04-06T16:56:37;137.00;110.80;54.00
14880;PMS7003;7533;51.278;12.588;2023-04-06T17:01:41;122.20;99.40;49.00
14880;PMS7003;7533;51.278;12.588;2023-04-06T17:06:44;117.20;98.00;48.00
14880;PMS7003;7533;51.278;12.588;2023-04-06T17:11:47;122.00;101.40;47.20
14880;PMS7003;7533;51.278;12.588;2023-04-06T17:16:51;120.00;101.20;51.60
14880;PMS7003;7533;51.278;12.588;2023-04-06T17:21:55;117.80;97.60;46.00
14880;PMS7003;7533;51.278;12.588;2023-04-06T17:26:58;117.40;97.60;47.60
14880;PMS7003;7533;51.278;12.588;2023-04-06T17:32:03;111.00;91.00;43.00
14880;PMS7003;7533;51.278;12.588;2023-04-06T17:37:06;109.40;92.00;44.60
14880;PMS7003;7533;51.278;12.588;2023-04-06T17:42:09;79.80;66.00;35.00
14880;PMS7003;7533;51.278;12.588;2023-04-06T17:47:13;94.40;77.60;38.60
14880;PMS7003;7533;51.278;12.588;2023-04-06T17:52:16;100.80;82.20;38.60
14880;PMS7003;7533;51.278;12.588;2023-04-06T17:57:19;103.40;85.00;41.40
14880;PMS7003;7533;51.278;12.588;2023-04-06T18:02:23;94.20;79.00;38.60
14880;PMS7003;7533;51.278;12.588;2023-04-06T18:07:26;98.60;78.80;36.40
14880;PMS7003;7533;51.278;12.588;2023-04-06T18:12:29;94.60;80.40;38.00
14880;PMS7003;7533;51.278;12.588;2023-04-06T18:17:34;99.20;74.60;37.40
14880;PMS7003;7533;51.278;12.588;2023-04-06T18:22:37;86.00;70.20;36.00
14880;PMS7003;7533;51.278;12.588;2023-04-06T18:27:40;88.40;76.20;36.00
14880;PMS7003;7533;51.278;12.588;2023-04-06T18:32:44;87.40;75.20;37.40
14880;PMS7003;7533;51.278;12.588;2023-04-06T18:37:48;90.80;72.40;35.00
14880;PMS7003;7533;51.278;12.588;2023-04-06T18:42:50;88.00;74.00;36.00
14880;PMS7003;7533;51.278;12.588;2023-04-06T18:47:55;82.80;69.80;34.00
14880;PMS7003;7533;51.278;12.588;2023-04-06T18:52:58;85.40;69.60;35.00
14880;PMS7003;7533;51.278;12.588;2023-04-06T18:58:01;80.20;66.60;34.80
14880;PMS7003;7533;51.278;12.588;2023-04-06T19:03:05;82.40;70.40;34.60
14880;PMS7003;7533;51.278;12.588;2023-04-06T19:08:08;80.00;60.20;34.40
14880;PMS7003;7533;51.278;12.588;2023-04-06T19:13:12;80.20;64.60;34.00
14880;PMS7003;7533;51.278;12.588;2023-04-06T19:18:17;80.80;67.60;34.00
14880;PMS7003;7533;51.278;12.588;2023-04-06T19:23:20;81.60;65.00;33.00
14880;PMS7003;7533;51.278;12.588;2023-04-06T19:28:23;76.20;61.60;33.60
14880;PMS7003;7533;51.278;12.588;2023-04-06T19:33:29;80.00;59.60;32.80
14880;PMS7003;7533;51.278;12.588;2023-04-06T19:38:32;73.40;59.00;33.00
14880;PMS7003;7533;51.278;12.588;2023-04-06T19:43:36;75.00;59.00;32.00
14880;PMS7003;7533;51.278;12.588;2023-04-06T19:48:40;78.20;64.80;32.60
14880;PMS7003;7533;51.278;12.588;2023-04-06T19:53:43;74.60;54.00;32.00
14880;PMS7003;7533;51.278;12.588;2023-04-06T19:58:46;75.20;55.20;32.00
14880;PMS7003;7533;51.278;12.588;2023-04-06T20:03:50;75.00;55.20;32.00
14880;PMS7003;7533;51.278;12.588;2023-04-06T20:08:53;78.00;60.80;32.60
14880;PMS7003;7533;51.278;12.588;2023-04-06T20:13:56;72.40;54.20;32.00
14880;PMS7003;7533;51.278;12.588;2023-04-06T20:19:00;74.80;57.60;32.20
14880;PMS7003;7533;51.278;12.588;2023-04-06T20:24:03;72.20;53.60;30.20
14880;PMS7003;7533;51.278;12.588;2023-04-06T20:29:06;75.60;58.00;32.20
14880;PMS7003;7533;51.278;12.588;2023-04-06T20:34:11;72.20;51.60;30.00
14880;PMS7003;7533;51.278;12.588;2023-04-06T20:39:14;69.00;50.80;29.00
14880;PMS7003;7533;51.278;12.588;2023-04-06T20:44:17;69.20;52.20;30.80
14880;PMS7003;7533;51.278;12.588;2023-04-06T20:49:23;72.60;53.40;31.00
14880;PMS7003;7533;51.278;12.588;2023-04-06T20:54:25;69.40;51.00;29.80
14880;PMS7003;7533;51.278;12.588;2023-04-06T20:59:29;67.60;50.80;30.60
14880;PMS7003;7533;51.278;12.588;2023-04-06T21:04:34;68.60;51.40;29.00
14880;PMS7003;7533;51.278;12.588;2023-04-06T21:09:37;66.20;49.40;28.00
14880;PMS7003;7533;51.278;12.588;2023-04-06T21:14:41;64.80;50.00;28.60
14880;PMS7003;7533;51.278;12.588;2023-04-06T21:19:45;67.40;51.80;29.00
14880;PMS7003;7533;51.278;12.588;2023-04-06T21:24:48;69.60;52.60;28.20
14880;PMS7003;7533;51.278;12.588;2023-04-06T21:29:51;66.00;50.20;27.40
14880;PMS7003;7533;51.278;12.588;2023-04-06T21:34:55;68.80;50.60;27.80
14880;PMS7003;7533;51.278;12.588;2023-04-06T21:39:58;66.20;49.40;28.00
14880;PMS7003;7533;51.278;12.588;2023-04-06T21:45:02;66.40;48.20;28.00
14880;PMS7003;7533;51.278;12.588;2023-04-06T21:50:07;67.80;48.60;29.00
14880;PMS7003;7533;51.278;12.588;2023-04-06T21:55:11;65.00;48.40;26.40
14880;PMS7003;7533;51.278;12.588;2023-04-06T22:00:14;65.80;50.60;29.80
14880;PMS7003;7533;51.278;12.588;2023-04-06T22:05:20;63.80;47.00;27.00
14880;PMS7003;7533;51.278;12.588;2023-04-06T22:10:23;60.00;47.00;27.00
14880;PMS7003;7533;51.278;12.588;2023-04-06T22:15:26;65.60;46.40;26.60
14880;PMS7003;7533;51.278;12.588;2023-04-06T22:20:30;63.80;47.40;27.60
14880;PMS7003;7533;51.278;12.588;2023-04-06T22:25:34;59.60;46.00;26.00
14880;PMS7003;7533;51.278;12.588;2023-04-06T22:30:37;63.80;47.40;27.00
14880;PMS7003;7533;51.278;12.588;2023-04-06T22:35:41;61.60;47.60;28.00
14880;PMS7003;7533;51.278;12.588;2023-04-06T22:40:44;61.40;46.00;27.00
14880;PMS7003;7533;51.278;12.588;2023-04-06T22:45:47;59.00;43.80;25.00
14880;PMS7003;7533;51.278;12.588;2023-04-06T22:50:51;61.00;47.80;27.40
14880;PMS7003;7533;51.278;12.588;2023-04-06T22:55:54;56.80;45.00;26.00
14880;PMS7003;7533;51.278;12.588;2023-04-06T23:00:57;56.00;44.40;24.80
14880;PMS7003;7533;51.278;12.588;2023-04-06T23:06:01;56.00;43.20;24.80
14880;PMS7003;7533;51.278;12.588;2023-04-06T23:11:04;55.80;43.40;25.40
14880;PMS7003;7533;51.278;12.588;2023-04-06T23:16:07;59.00;45.20;25.40
14880;PMS7003;7533;51.278;12.588;2023-04-06T23:21:12;59.40;45.00;26.40
14880;PMS7003;7533;51.278;12.588;2023-04-06T23:26:15;55.80;44.20;25.00
14880;PMS7003;7533;51.278;12.588;2023-04-06T23:31:18;55.00;44.40;24.80
14880;PMS7003;7533;51.278;12.588;2023-04-06T23:36:22;54.20;41.80;24.40
14880;PMS7003;7533;51.278;12.588;2023-04-06T23:41:28;58.80;45.20;24.00
14880;PMS7003;7533;51.278;12.588;2023-04-06T23:46:31;56.60;41.60;23.80
14880;PMS7003;7533;51.278;12.588;2023-04-06T23:51:35;58.00;41.20;23.60
14880;PMS7003;7533;51.278;12.588;2023-04-06T23:56:38;51.00;39.60;22.80
